Armony — 5IM517 — position and weather

sailwx.info

Track history (hours):
 
Tides and Currents Weather Stations Pressure Air Temp Water Temp Dewpoint Dewpoint Depression Visibility Wind Speed Wind Dir Waves Ship Positions

Armony

Last reported at 2014-Dec-06 18:17 UTC. Time now 2014-Dec-22 03:28 UTC.
Position N 40°46' E 029°26'.
Warning: this ship's position is 15 days out of date.

Length 70 m; draft 4.6 m.

Type: Ship. MMSI: 677041700.

Date/timePositionNaut miles runAvg speedWind from/ knotsBaromVisibWave heightAir tempDewpointWater temp
2014-Dec-06 18:17N 40°46' E 029°26'1 0.0
2014-Dec-05 19:09N 40°45' E 029°25'2 3.1
2014-Dec-05 18:30N 40°44' E 029°23'2 1.8
2014-Dec-05 17:34N 40°44' E 029°20'6 5.6
2014-Dec-05 16:33N 40°44' E 029°13'8 7.6
2014-Dec-05 15:32N 40°45' E 029°03'7 7.6
2014-Dec-05 14:33N 40°51' E 028°58'8 7.9
2014-Dec-05 13:34N 40°59' E 028°59'18 7.7
2014-Dec-05 11:11N 41°16' E 029°08'  
2014-Nov-27 21:33N 40°58' E 028°59'4 4.2
2014-Nov-27 20:33N 40°54' E 028°60'6 6.3
2014-Nov-27 19:33N 40°49' E 029°05'5 4.1
2014-Nov-27 18:24N 40°51' E 029°10'0 0.0
2014-Nov-27 17:30N 40°51' E 029°10'0 0.0
2014-Nov-27 16:30N 40°51' E 029°10'0 0.0
2014-Nov-27 15:30N 40°51' E 029°10'0 0.0
2014-Nov-27 14:30N 40°51' E 029°10'0 0.0
2014-Nov-27 13:30N 40°51' E 029°10'0 0.0
2014-Nov-27 12:30N 40°51' E 029°10'0 0.0
2014-Nov-27 11:24N 40°51' E 029°10'0 0.0
2014-Nov-27 10:24N 40°51' E 029°10'0 0.0
2014-Nov-27 09:30N 40°51' E 029°10'0 0.0
2014-Nov-27 08:30N 40°51' E 029°10'0 0.0
2014-Nov-27 07:30N 40°51' E 029°10'0 0.0
2014-Nov-27 06:30N 40°51' E 029°10'0 0.0
2014-Nov-27 05:33N 40°51' E 029°10'0 0.0
2014-Nov-27 04:30N 40°51' E 029°11'0 0.0
2014-Nov-27 02:18N 40°51' E 029°11'0 0.0
2014-Nov-27 01:24N 40°51' E 029°11'0 0.0
2014-Nov-27 00:30N 40°51' E 029°11'0 0.0
2014-Nov-26 23:30N 40°51' E 029°10'0 0.0
2014-Nov-26 22:30N 40°51' E 029°11'0 0.0
2014-Nov-26 21:30N 40°51' E 029°11'0 0.0
2014-Nov-26 20:30N 40°51' E 029°11'0 0.0
2014-Nov-26 19:30N 40°51' E 029°11'0 0.0
2014-Nov-26 18:33N 40°51' E 029°11'  
Track history (hours):
 
Tides and Currents Weather Stations Pressure Air Temp Water Temp Dewpoint Dewpoint Depression Visibility Wind Speed Wind Dir Waves Ship Positions

Armony

Last reported at 2014-Dec-06 18:17 UTC. Time now 2014-Dec-22 03:28 UTC.
Position N 40°46' E 029°26'.
Warning: this ship's position is 15 days out of date.

Length 70 m; draft 4.6 m.

Type: Ship. MMSI: 677041700.

Date/timePositionNaut miles runAvg speedWind from/ knotsBaromVisibWave heightAir tempDewpointWater temp
2014-Dec-06 18:17N 40°46' E 029°26'1 0.0
2014-Dec-05 19:09N 40°45' E 029°25'2 3.1
2014-Dec-05 18:30N 40°44' E 029°23'2 1.8
2014-Dec-05 17:34N 40°44' E 029°20'6 5.6
2014-Dec-05 16:33N 40°44' E 029°13'8 7.6
2014-Dec-05 15:32N 40°45' E 029°03'7 7.6
2014-Dec-05 14:33N 40°51' E 028°58'8 7.9
2014-Dec-05 13:34N 40°59' E 028°59'18 7.7
2014-Dec-05 11:11N 41°16' E 029°08'  
2014-Nov-27 21:33N 40°58' E 028°59'4 4.2
2014-Nov-27 20:33N 40°54' E 028°60'6 6.3
2014-Nov-27 19:33N 40°49' E 029°05'5 4.1
2014-Nov-27 18:24N 40°51' E 029°10'0 0.0
2014-Nov-27 17:30N 40°51' E 029°10'0 0.0
2014-Nov-27 16:30N 40°51' E 029°10'0 0.0
2014-Nov-27 15:30N 40°51' E 029°10'0 0.0
2014-Nov-27 14:30N 40°51' E 029°10'0 0.0
2014-Nov-27 13:30N 40°51' E 029°10'0 0.0
2014-Nov-27 12:30N 40°51' E 029°10'0 0.0
2014-Nov-27 11:24N 40°51' E 029°10'0 0.0
2014-Nov-27 10:24N 40°51' E 029°10'0 0.0
2014-Nov-27 09:30N 40°51' E 029°10'0 0.0
2014-Nov-27 08:30N 40°51' E 029°10'0 0.0
2014-Nov-27 07:30N 40°51' E 029°10'0 0.0
2014-Nov-27 06:30N 40°51' E 029°10'0 0.0
2014-Nov-27 05:33N 40°51' E 029°10'0 0.0
2014-Nov-27 04:30N 40°51' E 029°11'0 0.0
2014-Nov-27 02:18N 40°51' E 029°11'0 0.0
2014-Nov-27 01:24N 40°51' E 029°11'0 0.0
2014-Nov-27 00:30N 40°51' E 029°11'0 0.0
2014-Nov-26 23:30N 40°51' E 029°10'0 0.0
2014-Nov-26 22:30N 40°51' E 029°11'0 0.0
2014-Nov-26 21:30N 40°51' E 029°11'0 0.0
2014-Nov-26 20:30N 40°51' E 029°11'0 0.0
2014-Nov-26 19:30N 40°51' E 029°11'0 0.0
2014-Nov-26 18:33N 40°51' E 029°11'  

Dump ship's entire track history